sensor_id;sensor_type;location;lat;lon;timestamp;P1;durP1;ratioP1;P2;durP2;ratioP2
21806;SDS011;11065;50.786;7.840;2023-04-23T00:01:03;7.60;;;6.60;;
21806;SDS011;11065;50.786;7.840;2023-04-23T00:03:31;8.00;;;6.77;;
21806;SDS011;11065;50.786;7.840;2023-04-23T00:06:02;7.23;;;6.53;;
21806;SDS011;11065;50.786;7.840;2023-04-23T00:08:33;7.57;;;6.67;;
21806;SDS011;11065;50.786;7.840;2023-04-23T00:11:01;7.47;;;6.67;;
21806;SDS011;11065;50.786;7.840;2023-04-23T00:13:30;7.60;;;6.80;;
21806;SDS011;11065;50.786;7.840;2023-04-23T00:16:00;6.97;;;6.23;;
21806;SDS011;11065;50.786;7.840;2023-04-23T00:18:28;7.77;;;6.97;;
21806;SDS011;11065;50.786;7.840;2023-04-23T00:20:56;7.23;;;6.50;;
21806;SDS011;11065;50.786;7.840;2023-04-23T00:23:25;7.17;;;6.47;;
21806;SDS011;11065;50.786;7.840;2023-04-23T00:25:53;6.97;;;6.27;;
21806;SDS011;11065;50.786;7.840;2023-04-23T00:28:21;7.53;;;6.73;;
21806;SDS011;11065;50.786;7.840;2023-04-23T00:30:49;7.37;;;6.50;;
21806;SDS011;11065;50.786;7.840;2023-04-23T00:33:18;7.57;;;6.77;;
21806;SDS011;11065;50.786;7.840;2023-04-23T00:35:46;8.10;;;7.17;;
21806;SDS011;11065;50.786;7.840;2023-04-23T00:38:14;8.53;;;7.17;;
21806;SDS011;11065;50.786;7.840;2023-04-23T00:40:43;7.30;;;6.40;;
21806;SDS011;11065;50.786;7.840;2023-04-23T00:43:13;7.97;;;6.90;;
21806;SDS011;11065;50.786;7.840;2023-04-23T00:45:43;8.67;;;7.77;;
21806;SDS011;11065;50.786;7.840;2023-04-23T00:48:11;11.30;;;9.03;;
21806;SDS011;11065;50.786;7.840;2023-04-23T00:50:41;9.93;;;8.03;;
21806;SDS011;11065;50.786;7.840;2023-04-23T00:53:09;9.60;;;8.23;;
21806;SDS011;11065;50.786;7.840;2023-04-23T00:55:37;9.73;;;8.53;;
21806;SDS011;11065;50.786;7.840;2023-04-23T00:58:06;9.37;;;8.27;;
21806;SDS011;11065;50.786;7.840;2023-04-23T01:00:35;10.10;;;9.03;;
21806;SDS011;11065;50.786;7.840;2023-04-23T01:03:11;9.93;;;8.53;;
21806;SDS011;11065;50.786;7.840;2023-04-23T01:05:41;10.83;;;9.73;;
21806;SDS011;11065;50.786;7.840;2023-04-23T01:08:09;10.27;;;9.17;;
21806;SDS011;11065;50.786;7.840;2023-04-23T01:10:41;12.20;;;10.20;;
21806;SDS011;11065;50.786;7.840;2023-04-23T01:13:10;10.53;;;9.23;;
21806;SDS011;11065;50.786;7.840;2023-04-23T01:15:39;12.40;;;10.40;;
21806;SDS011;11065;50.786;7.840;2023-04-23T01:18:09;11.43;;;10.23;;
21806;SDS011;11065;50.786;7.840;2023-04-23T01:20:38;12.80;;;10.47;;
21806;SDS011;11065;50.786;7.840;2023-04-23T01:23:08;12.20;;;10.60;;
21806;SDS011;11065;50.786;7.840;2023-04-23T01:25:36;15.13;;;11.17;;
21806;SDS011;11065;50.786;7.840;2023-04-23T01:28:04;13.17;;;11.37;;
21806;SDS011;11065;50.786;7.840;2023-04-23T01:30:33;13.57;;;11.20;;
21806;SDS011;11065;50.786;7.840;2023-04-23T01:33:02;11.90;;;10.60;;
21806;SDS011;11065;50.786;7.840;2023-04-23T01:35:31;14.20;;;12.27;;
21806;SDS011;11065;50.786;7.840;2023-04-23T01:38:00;15.13;;;12.13;;
21806;SDS011;11065;50.786;7.840;2023-04-23T01:40:31;16.53;;;13.40;;
21806;SDS011;11065;50.786;7.840;2023-04-23T01:42:59;13.80;;;11.97;;
21806;SDS011;11065;50.786;7.840;2023-04-23T01:45:27;15.30;;;12.73;;
21806;SDS011;11065;50.786;7.840;2023-04-23T01:47:57;13.37;;;11.97;;
21806;SDS011;11065;50.786;7.840;2023-04-23T01:50:26;13.77;;;12.07;;
21806;SDS011;11065;50.786;7.840;2023-04-23T01:52:55;14.60;;;12.03;;
21806;SDS011;11065;50.786;7.840;2023-04-23T01:55:23;14.23;;;12.13;;
21806;SDS011;11065;50.786;7.840;2023-04-23T01:57:52;13.87;;;12.00;;
21806;SDS011;11065;50.786;7.840;2023-04-23T02:00:20;13.30;;;11.40;;
21806;SDS011;11065;50.786;7.840;2023-04-23T02:02:48;14.67;;;11.90;;
21806;SDS011;11065;50.786;7.840;2023-04-23T02:05:19;13.83;;;11.20;;
21806;SDS011;11065;50.786;7.840;2023-04-23T02:07:48;14.40;;;11.83;;
21806;SDS011;11065;50.786;7.840;2023-04-23T02:10:17;16.33;;;13.40;;
21806;SDS011;11065;50.786;7.840;2023-04-23T02:12:46;15.17;;;13.43;;
21806;SDS011;11065;50.786;7.840;2023-04-23T02:15:15;17.07;;;14.27;;
21806;SDS011;11065;50.786;7.840;2023-04-23T02:17:45;14.20;;;12.17;;
21806;SDS011;11065;50.786;7.840;2023-04-23T02:20:16;16.53;;;13.30;;
21806;SDS011;11065;50.786;7.840;2023-04-23T02:22:45;15.73;;;12.63;;
21806;SDS011;11065;50.786;7.840;2023-04-23T02:25:14;14.63;;;12.43;;
21806;SDS011;11065;50.786;7.840;2023-04-23T02:27:43;14.67;;;12.87;;
21806;SDS011;11065;50.786;7.840;2023-04-23T02:30:11;16.40;;;13.23;;
21806;SDS011;11065;50.786;7.840;2023-04-23T02:32:41;15.43;;;12.27;;
21806;SDS011;11065;50.786;7.840;2023-04-23T02:35:09;14.40;;;11.50;;
21806;SDS011;11065;50.786;7.840;2023-04-23T02:37:39;14.87;;;11.87;;
21806;SDS011;11065;50.786;7.840;2023-04-23T02:40:07;13.80;;;11.40;;
21806;SDS011;11065;50.786;7.840;2023-04-23T02:42:36;12.83;;;10.77;;
21806;SDS011;11065;50.786;7.840;2023-04-23T02:45:07;15.23;;;12.33;;
21806;SDS011;11065;50.786;7.840;2023-04-23T02:47:36;14.33;;;12.20;;
21806;SDS011;11065;50.786;7.840;2023-04-23T02:50:07;16.80;;;13.20;;
21806;SDS011;11065;50.786;7.840;2023-04-23T02:52:35;16.30;;;12.77;;
21806;SDS011;11065;50.786;7.840;2023-04-23T02:55:04;15.23;;;13.03;;
21806;SDS011;11065;50.786;7.840;2023-04-23T02:57:34;16.17;;;13.43;;
21806;SDS011;11065;50.786;7.840;2023-04-23T03:00:02;13.43;;;11.40;;
21806;SDS011;11065;50.786;7.840;2023-04-23T03:02:38;15.30;;;11.43;;
21806;SDS011;11065;50.786;7.840;2023-04-23T03:05:08;16.27;;;12.10;;
21806;SDS011;11065;50.786;7.840;2023-04-23T03:07:37;15.03;;;12.70;;
21806;SDS011;11065;50.786;7.840;2023-04-23T03:10:05;15.30;;;12.23;;
21806;SDS011;11065;50.786;7.840;2023-04-23T03:12:34;14.90;;;12.00;;
21806;SDS011;11065;50.786;7.840;2023-04-23T03:15:03;15.43;;;12.37;;
21806;SDS011;11065;50.786;7.840;2023-04-23T03:17:33;14.90;;;12.03;;
21806;SDS011;11065;50.786;7.840;2023-04-23T03:20:02;15.10;;;12.10;;
21806;SDS011;11065;50.786;7.840;2023-04-23T03:22:32;15.47;;;11.90;;
21806;SDS011;11065;50.786;7.840;2023-04-23T03:25:01;15.80;;;13.03;;
21806;SDS011;11065;50.786;7.840;2023-04-23T03:27:30;17.40;;;13.67;;
21806;SDS011;11065;50.786;7.840;2023-04-23T03:29:58;16.77;;;12.97;;
21806;SDS011;11065;50.786;7.840;2023-04-23T03:32:26;16.03;;;13.00;;
21806;SDS011;11065;50.786;7.840;2023-04-23T03:34:54;16.80;;;12.80;;
21806;SDS011;11065;50.786;7.840;2023-04-23T03:37:22;16.13;;;13.13;;
21806;SDS011;11065;50.786;7.840;2023-04-23T03:39:52;16.63;;;13.30;;
21806;SDS011;11065;50.786;7.840;2023-04-23T03:42:20;14.90;;;12.77;;
21806;SDS011;11065;50.786;7.840;2023-04-23T03:44:51;17.63;;;12.53;;
21806;SDS011;11065;50.786;7.840;2023-04-23T03:47:19;15.57;;;12.17;;
21806;SDS011;11065;50.786;7.840;2023-04-23T03:49:47;15.67;;;12.53;;
21806;SDS011;11065;50.786;7.840;2023-04-23T03:52:16;16.93;;;12.13;;
21806;SDS011;11065;50.786;7.840;2023-04-23T03:54:45;16.17;;;12.47;;
21806;SDS011;11065;50.786;7.840;2023-04-23T03:57:18;16.73;;;13.13;;
21806;SDS011;11065;50.786;7.840;2023-04-23T04:00:16;14.03;;;11.70;;
21806;SDS011;11065;50.786;7.840;2023-04-23T04:02:44;14.60;;;11.87;;
21806;SDS011;11065;50.786;7.840;2023-04-23T04:05:13;15.03;;;11.40;;
21806;SDS011;11065;50.786;7.840;2023-04-23T04:07:41;13.87;;;10.90;;
21806;SDS011;11065;50.786;7.840;2023-04-23T04:10:09;13.27;;;11.37;;
21806;SDS011;11065;50.786;7.840;2023-04-23T04:12:39;13.83;;;11.70;;
21806;SDS011;11065;50.786;7.840;2023-04-23T04:15:08;15.13;;;11.77;;
21806;SDS011;11065;50.786;7.840;2023-04-23T04:17:37;12.60;;;10.43;;
21806;SDS011;11065;50.786;7.840;2023-04-23T04:20:05;14.00;;;11.53;;
21806;SDS011;11065;50.786;7.840;2023-04-23T04:22:34;16.50;;;11.73;;
21806;SDS011;11065;50.786;7.840;2023-04-23T04:25:03;14.33;;;11.20;;
21806;SDS011;11065;50.786;7.840;2023-04-23T04:27:32;15.47;;;11.03;;
21806;SDS011;11065;50.786;7.840;2023-04-23T04:30:01;15.47;;;11.30;;
21806;SDS011;11065;50.786;7.840;2023-04-23T04:32:30;13.77;;;10.80;;
21806;SDS011;11065;50.786;7.840;2023-04-23T04:34:58;13.17;;;10.57;;
21806;SDS011;11065;50.786;7.840;2023-04-23T04:37:28;12.30;;;9.97;;
21806;SDS011;11065;50.786;7.840;2023-04-23T04:39:57;11.37;;;9.37;;
21806;SDS011;11065;50.786;7.840;2023-04-23T04:42:26;11.93;;;9.33;;
21806;SDS011;11065;50.786;7.840;2023-04-23T04:44:54;12.43;;;9.40;;
21806;SDS011;11065;50.786;7.840;2023-04-23T04:47:26;11.73;;;9.00;;
21806;SDS011;11065;50.786;7.840;2023-04-23T04:49:54;12.53;;;9.20;;
21806;SDS011;11065;50.786;7.840;2023-04-23T04:52:23;13.47;;;10.13;;
21806;SDS011;11065;50.786;7.840;2023-04-23T04:54:51;12.47;;;9.13;;
21806;SDS011;11065;50.786;7.840;2023-04-23T04:57:19;13.77;;;9.83;;
21806;SDS011;11065;50.786;7.840;2023-04-23T04:59:48;15.20;;;10.83;;
21806;SDS011;11065;50.786;7.840;2023-04-23T05:02:16;24.87;;;12.23;;
21806;SDS011;11065;50.786;7.840;2023-04-23T05:04:46;34.47;;;13.80;;
21806;SDS011;11065;50.786;7.840;2023-04-23T05:07:15;26.87;;;14.77;;
21806;SDS011;11065;50.786;7.840;2023-04-23T05:09:43;24.73;;;14.77;;
21806;SDS011;11065;50.786;7.840;2023-04-23T05:12:11;34.20;;;14.47;;
21806;SDS011;11065;50.786;7.840;2023-04-23T05:14:39;20.40;;;13.07;;
21806;SDS011;11065;50.786;7.840;2023-04-23T05:17:07;28.50;;;13.43;;
21806;SDS011;11065;50.786;7.840;2023-04-23T05:19:35;25.90;;;13.00;;
21806;SDS011;11065;50.786;7.840;2023-04-23T05:22:04;23.63;;;13.00;;
21806;SDS011;11065;50.786;7.840;2023-04-23T05:24:33;21.00;;;13.30;;
21806;SDS011;11065;50.786;7.840;2023-04-23T05:27:01;18.23;;;12.23;;
21806;SDS011;11065;50.786;7.840;2023-04-23T05:29:29;35.33;;;12.83;;
21806;SDS011;11065;50.786;7.840;2023-04-23T05:31:57;31.70;;;12.23;;
21806;SDS011;11065;50.786;7.840;2023-04-23T05:34:25;53.13;;;12.87;;
21806;SDS011;11065;50.786;7.840;2023-04-23T05:36:54;21.63;;;11.10;;
21806;SDS011;11065;50.786;7.840;2023-04-23T05:39:23;29.63;;;12.17;;
21806;SDS011;11065;50.786;7.840;2023-04-23T05:41:51;19.33;;;11.17;;
21806;SDS011;11065;50.786;7.840;2023-04-23T05:44:20;16.33;;;10.87;;
21806;SDS011;11065;50.786;7.840;2023-04-23T05:46:47;13.50;;;9.97;;
21806;SDS011;11065;50.786;7.840;2023-04-23T05:49:15;28.17;;;10.17;;
21806;SDS011;11065;50.786;7.840;2023-04-23T05:51:43;42.27;;;11.50;;
21806;SDS011;11065;50.786;7.840;2023-04-23T05:54:12;18.47;;;9.67;;
21806;SDS011;11065;50.786;7.840;2023-04-23T05:56:41;51.13;;;11.80;;
21806;SDS011;11065;50.786;7.840;2023-04-23T05:59:09;29.63;;;10.33;;
21806;SDS011;11065;50.786;7.840;2023-04-23T06:01:37;13.80;;;9.30;;
21806;SDS011;11065;50.786;7.840;2023-04-23T06:04:06;32.77;;;10.77;;
21806;SDS011;11065;50.786;7.840;2023-04-23T06:06:34;28.73;;;10.07;;
21806;SDS011;11065;50.786;7.840;2023-04-23T06:09:02;20.80;;;10.63;;
21806;SDS011;11065;50.786;7.840;2023-04-23T06:11:30;16.07;;;10.33;;
21806;SDS011;11065;50.786;7.840;2023-04-23T06:14:02;11.57;;;8.60;;
21806;SDS011;11065;50.786;7.840;2023-04-23T06:16:31;11.93;;;9.63;;
21806;SDS011;11065;50.786;7.840;2023-04-23T06:18:59;11.53;;;9.23;;
21806;SDS011;11065;50.786;7.840;2023-04-23T06:21:27;11.50;;;9.53;;
21806;SDS011;11065;50.786;7.840;2023-04-23T06:23:55;14.00;;;10.53;;
21806;SDS011;11065;50.786;7.840;2023-04-23T06:26:23;12.63;;;10.50;;
21806;SDS011;11065;50.786;7.840;2023-04-23T06:28:54;19.57;;;11.80;;
21806;SDS011;11065;50.786;7.840;2023-04-23T06:31:29;12.57;;;10.43;;
21806;SDS011;11065;50.786;7.840;2023-04-23T06:33:57;22.20;;;10.73;;
21806;SDS011;11065;50.786;7.840;2023-04-23T06:36:26;12.93;;;10.90;;
21806;SDS011;11065;50.786;7.840;2023-04-23T06:38:54;12.33;;;9.90;;
21806;SDS011;11065;50.786;7.840;2023-04-23T06:41:22;11.77;;;9.37;;
21806;SDS011;11065;50.786;7.840;2023-04-23T06:44:02;10.60;;;9.00;;
21806;SDS011;11065;50.786;7.840;2023-04-23T06:46:36;10.60;;;9.33;;
21806;SDS011;11065;50.786;7.840;2023-04-23T06:49:03;11.20;;;8.80;;
21806;SDS011;11065;50.786;7.840;2023-04-23T06:51:31;7.97;;;6.97;;
21806;SDS011;11065;50.786;7.840;2023-04-23T06:54:01;7.40;;;6.03;;
21806;SDS011;11065;50.786;7.840;2023-04-23T06:56:29;9.23;;;6.27;;
21806;SDS011;11065;50.786;7.840;2023-04-23T06:58:57;8.40;;;6.57;;
21806;SDS011;11065;50.786;7.840;2023-04-23T07:01:25;8.90;;;7.17;;
21806;SDS011;11065;50.786;7.840;2023-04-23T07:03:54;8.97;;;7.47;;
21806;SDS011;11065;50.786;7.840;2023-04-23T07:06:22;7.77;;;6.47;;
21806;SDS011;11065;50.786;7.840;2023-04-23T07:08:50;8.83;;;6.97;;
21806;SDS011;11065;50.786;7.840;2023-04-23T07:11:18;7.20;;;5.73;;
21806;SDS011;11065;50.786;7.840;2023-04-23T07:13:46;7.27;;;6.00;;
21806;SDS011;11065;50.786;7.840;2023-04-23T07:16:14;7.87;;;4.97;;
21806;SDS011;11065;50.786;7.840;2023-04-23T07:18:46;5.57;;;4.60;;
21806;SDS011;11065;50.786;7.840;2023-04-23T07:21:15;6.27;;;5.33;;
21806;SDS011;11065;50.786;7.840;2023-04-23T07:23:44;6.77;;;5.37;;
21806;SDS011;11065;50.786;7.840;2023-04-23T07:26:12;6.93;;;5.47;;
21806;SDS011;11065;50.786;7.840;2023-04-23T07:28:40;5.90;;;5.30;;
21806;SDS011;11065;50.786;7.840;2023-04-23T07:31:08;5.80;;;4.73;;
21806;SDS011;11065;50.786;7.840;2023-04-23T07:33:36;5.07;;;4.47;;
21806;SDS011;11065;50.786;7.840;2023-04-23T07:36:04;4.67;;;3.27;;
21806;SDS011;11065;50.786;7.840;2023-04-23T07:38:34;3.40;;;2.53;;
21806;SDS011;11065;50.786;7.840;2023-04-23T07:41:02;3.73;;;2.70;;
21806;SDS011;11065;50.786;7.840;2023-04-23T07:43:30;3.50;;;2.67;;
21806;SDS011;11065;50.786;7.840;2023-04-23T07:45:58;3.70;;;2.73;;
21806;SDS011;11065;50.786;7.840;2023-04-23T07:48:26;4.33;;;2.40;;
21806;SDS011;11065;50.786;7.840;2023-04-23T07:50:54;3.60;;;2.67;;
21806;SDS011;11065;50.786;7.840;2023-04-23T07:53:22;3.73;;;2.60;;
21806;SDS011;11065;50.786;7.840;2023-04-23T07:55:52;3.30;;;2.27;;
21806;SDS011;11065;50.786;7.840;2023-04-23T07:58:21;2.77;;;2.00;;
21806;SDS011;11065;50.786;7.840;2023-04-23T08:00:49;2.57;;;1.90;;
21806;SDS011;11065;50.786;7.840;2023-04-23T08:03:17;2.87;;;2.10;;
21806;SDS011;11065;50.786;7.840;2023-04-23T08:05:45;3.07;;;2.50;;
21806;SDS011;11065;50.786;7.840;2023-04-23T08:08:13;3.87;;;2.27;;
21806;SDS011;11065;50.786;7.840;2023-04-23T08:10:41;3.47;;;2.57;;
21806;SDS011;11065;50.786;7.840;2023-04-23T08:13:11;3.93;;;2.33;;
21806;SDS011;11065;50.786;7.840;2023-04-23T08:15:39;3.00;;;1.93;;
21806;SDS011;11065;50.786;7.840;2023-04-23T08:18:07;3.27;;;2.20;;
21806;SDS011;11065;50.786;7.840;2023-04-23T08:20:35;2.80;;;2.00;;
21806;SDS011;11065;50.786;7.840;2023-04-23T08:23:03;2.80;;;2.07;;
21806;SDS011;11065;50.786;7.840;2023-04-23T08:25:32;2.57;;;2.00;;
21806;SDS011;11065;50.786;7.840;2023-04-23T08:28:00;3.37;;;2.30;;
21806;SDS011;11065;50.786;7.840;2023-04-23T08:30:30;3.07;;;2.20;;
21806;SDS011;11065;50.786;7.840;2023-04-23T08:32:58;2.60;;;2.07;;
21806;SDS011;11065;50.786;7.840;2023-04-23T08:35:26;2.80;;;2.40;;
21806;SDS011;11065;50.786;7.840;2023-04-23T08:37:54;3.20;;;2.00;;
21806;SDS011;11065;50.786;7.840;2023-04-23T08:40:23;2.87;;;2.13;;
21806;SDS011;11065;50.786;7.840;2023-04-23T08:42:53;3.90;;;2.13;;
21806;SDS011;11065;50.786;7.840;2023-04-23T08:45:24;3.00;;;2.20;;
21806;SDS011;11065;50.786;7.840;2023-04-23T08:47:54;2.60;;;2.03;;
21806;SDS011;11065;50.786;7.840;2023-04-23T08:50:28;3.23;;;2.00;;
21806;SDS011;11065;50.786;7.840;2023-04-23T08:52:57;3.92;;;2.28;;
21806;SDS011;11065;50.786;7.840;2023-04-23T08:55:25;3.03;;;2.20;;
21806;SDS011;11065;50.786;7.840;2023-04-23T08:57:56;2.70;;;2.03;;
21806;SDS011;11065;50.786;7.840;2023-04-23T09:00:25;2.88;;;2.03;;
21806;SDS011;11065;50.786;7.840;2023-04-23T09:02:54;3.33;;;2.00;;
21806;SDS011;11065;50.786;7.840;2023-04-23T09:05:23;3.58;;;2.17;;
21806;SDS011;11065;50.786;7.840;2023-04-23T09:07:51;3.45;;;1.80;;
21806;SDS011;11065;50.786;7.840;2023-04-23T09:10:19;3.33;;;1.90;;
21806;SDS011;11065;50.786;7.840;2023-04-23T09:12:48;3.63;;;1.88;;
21806;SDS011;11065;50.786;7.840;2023-04-23T09:15:15;3.80;;;2.20;;
21806;SDS011;11065;50.786;7.840;2023-04-23T09:17:45;3.58;;;1.73;;
21806;SDS011;11065;50.786;7.840;2023-04-23T09:20:16;4.80;;;2.10;;
21806;SDS011;11065;50.786;7.840;2023-04-23T09:22:45;2.95;;;1.67;;
21806;SDS011;11065;50.786;7.840;2023-04-23T09:25:14;2.15;;;1.88;;
21806;SDS011;11065;50.786;7.840;2023-04-23T09:27:44;2.30;;;1.70;;
21806;SDS011;11065;50.786;7.840;2023-04-23T09:30:13;2.92;;;1.90;;
21806;SDS011;11065;50.786;7.840;2023-04-23T09:32:42;3.13;;;1.88;;
21806;SDS011;11065;50.786;7.840;2023-04-23T09:35:12;3.67;;;1.80;;
21806;SDS011;11065;50.786;7.840;2023-04-23T09:37:43;3.20;;;1.33;;
21806;SDS011;11065;50.786;7.840;2023-04-23T09:40:14;3.13;;;1.60;;
21806;SDS011;11065;50.786;7.840;2023-04-23T09:42:46;2.00;;;1.25;;
21806;SDS011;11065;50.786;7.840;2023-04-23T09:45:16;2.45;;;1.27;;
21806;SDS011;11065;50.786;7.840;2023-04-23T09:47:47;3.33;;;1.30;;
21806;SDS011;11065;50.786;7.840;2023-04-23T09:50:16;3.97;;;1.40;;
21806;SDS011;11065;50.786;7.840;2023-04-23T09:52:52;4.60;;;2.03;;
21806;SDS011;11065;50.786;7.840;2023-04-23T09:55:26;2.53;;;1.10;;
21806;SDS011;11065;50.786;7.840;2023-04-23T09:57:56;2.65;;;1.55;;
21806;SDS011;11065;50.786;7.840;2023-04-23T10:00:25;2.33;;;1.23;;
21806;SDS011;11065;50.786;7.840;2023-04-23T10:02:55;2.30;;;1.10;;
21806;SDS011;11065;50.786;7.840;2023-04-23T10:05:26;3.20;;;1.25;;
21806;SDS011;11065;50.786;7.840;2023-04-23T10:08:16;1.42;;;1.00;;
21806;SDS011;11065;50.786;7.840;2023-04-23T10:10:45;3.00;;;1.08;;
21806;SDS011;11065;50.786;7.840;2023-04-23T10:13:28;3.38;;;1.25;;
21806;SDS011;11065;50.786;7.840;2023-04-23T10:15:56;3.38;;;1.55;;
21806;SDS011;11065;50.786;7.840;2023-04-23T10:18:43;1.90;;;1.10;;
21806;SDS011;11065;50.786;7.840;2023-04-23T10:21:13;1.48;;;1.17;;
21806;SDS011;11065;50.786;7.840;2023-04-23T10:23:43;1.23;;;0.70;;
21806;SDS011;11065;50.786;7.840;2023-04-23T10:26:14;1.48;;;1.00;;
21806;SDS011;11065;50.786;7.840;2023-04-23T10:28:43;2.75;;;1.00;;
21806;SDS011;11065;50.786;7.840;2023-04-23T10:31:14;1.92;;;0.90;;
21806;SDS011;11065;50.786;7.840;2023-04-23T10:33:42;1.52;;;0.80;;
21806;SDS011;11065;50.786;7.840;2023-04-23T10:36:25;1.67;;;0.90;;
21806;SDS011;11065;50.786;7.840;2023-04-23T10:38:55;2.50;;;0.80;;
21806;SDS011;11065;50.786;7.840;2023-04-23T10:41:28;1.98;;;0.95;;
21806;SDS011;11065;50.786;7.840;2023-04-23T10:44:00;3.00;;;0.93;;
21806;SDS011;11065;50.786;7.840;2023-04-23T10:46:29;3.20;;;1.65;;
21806;SDS011;11065;50.786;7.840;2023-04-23T10:49:04;3.33;;;1.58;;
21806;SDS011;11065;50.786;7.840;2023-04-23T10:51:33;1.63;;;0.90;;
21806;SDS011;11065;50.786;7.840;2023-04-23T10:54:06;1.42;;;0.75;;
21806;SDS011;11065;50.786;7.840;2023-04-23T10:56:36;2.17;;;0.90;;
21806;SDS011;11065;50.786;7.840;2023-04-23T10:59:05;2.30;;;0.80;;
21806;SDS011;11065;50.786;7.840;2023-04-23T11:01:34;1.55;;;0.82;;
21806;SDS011;11065;50.786;7.840;2023-04-23T11:04:18;3.13;;;0.90;;
21806;SDS011;11065;50.786;7.840;2023-04-23T11:06:49;2.53;;;0.88;;
21806;SDS011;11065;50.786;7.840;2023-04-23T11:09:31;1.63;;;0.80;;
21806;SDS011;11065;50.786;7.840;2023-04-23T11:12:05;1.40;;;0.90;;
21806;SDS011;11065;50.786;7.840;2023-04-23T11:14:35;4.57;;;0.80;;
21806;SDS011;11065;50.786;7.840;2023-04-23T11:17:10;1.98;;;0.90;;
21806;SDS011;11065;50.786;7.840;2023-04-23T11:19:39;2.20;;;0.75;;
21806;SDS011;11065;50.786;7.840;2023-04-23T11:22:12;3.25;;;0.80;;
21806;SDS011;11065;50.786;7.840;2023-04-23T11:24:44;2.17;;;1.00;;
21806;SDS011;11065;50.786;7.840;2023-04-23T11:27:16;2.00;;;0.90;;
21806;SDS011;11065;50.786;7.840;2023-04-23T11:29:45;2.53;;;1.00;;
21806;SDS011;11065;50.786;7.840;2023-04-23T11:32:14;2.08;;;0.80;;
21806;SDS011;11065;50.786;7.840;2023-04-23T11:34:44;0.95;;;0.75;;
21806;SDS011;11065;50.786;7.840;2023-04-23T11:37:15;1.40;;;0.88;;
21806;SDS011;11065;50.786;7.840;2023-04-23T11:39:45;1.60;;;0.90;;
21806;SDS011;11065;50.786;7.840;2023-04-23T11:42:15;3.92;;;0.93;;
21806;SDS011;11065;50.786;7.840;2023-04-23T11:44:45;1.98;;;0.80;;
21806;SDS011;11065;50.786;7.840;2023-04-23T11:47:14;3.25;;;0.95;;
21806;SDS011;11065;50.786;7.840;2023-04-23T11:49:44;1.55;;;0.82;;
21806;SDS011;11065;50.786;7.840;2023-04-23T11:52:13;2.03;;;0.85;;
21806;SDS011;11065;50.786;7.840;2023-04-23T11:54:41;3.10;;;0.90;;
21806;SDS011;11065;50.786;7.840;2023-04-23T11:57:10;1.98;;;0.80;;
21806;SDS011;11065;50.786;7.840;2023-04-23T11:59:39;2.00;;;0.90;;
21806;SDS011;11065;50.786;7.840;2023-04-23T12:02:08;1.83;;;0.80;;
21806;SDS011;11065;50.786;7.840;2023-04-23T12:04:36;3.25;;;1.00;;
21806;SDS011;11065;50.786;7.840;2023-04-23T12:07:06;1.77;;;0.85;;
21806;SDS011;11065;50.786;7.840;2023-04-23T12:09:51;2.78;;;1.00;;
21806;SDS011;11065;50.786;7.840;2023-04-23T12:12:32;1.95;;;0.75;;
21806;SDS011;11065;50.786;7.840;2023-04-23T12:15:02;1.98;;;1.00;;
21806;SDS011;11065;50.786;7.840;2023-04-23T12:17:31;3.08;;;0.88;;
21806;SDS011;11065;50.786;7.840;2023-04-23T12:20:02;1.85;;;0.90;;
21806;SDS011;11065;50.786;7.840;2023-04-23T12:22:32;1.40;;;1.00;;
21806;SDS011;11065;50.786;7.840;2023-04-23T12:25:03;1.80;;;1.00;;
21806;SDS011;11065;50.786;7.840;2023-04-23T12:27:38;1.95;;;1.00;;
21806;SDS011;11065;50.786;7.840;2023-04-23T12:30:08;1.45;;;1.00;;
21806;SDS011;11065;50.786;7.840;2023-04-23T12:32:37;2.47;;;0.95;;
21806;SDS011;11065;50.786;7.840;2023-04-23T12:35:06;1.58;;;1.00;;
21806;SDS011;11065;50.786;7.840;2023-04-23T12:37:36;1.67;;;0.95;;
21806;SDS011;11065;50.786;7.840;2023-04-23T12:40:05;1.20;;;1.00;;
21806;SDS011;11065;50.786;7.840;2023-04-23T12:42:34;2.47;;;1.10;;
21806;SDS011;11065;50.786;7.840;2023-04-23T12:45:07;2.05;;;1.20;;
21806;SDS011;11065;50.786;7.840;2023-04-23T12:47:36;2.17;;;1.50;;
21806;SDS011;11065;50.786;7.840;2023-04-23T12:50:05;2.63;;;1.60;;
21806;SDS011;11065;50.786;7.840;2023-04-23T12:52:33;4.28;;;2.00;;
21806;SDS011;11065;50.786;7.840;2023-04-23T12:55:02;1.85;;;1.30;;
21806;SDS011;11065;50.786;7.840;2023-04-23T12:57:30;2.55;;;1.50;;
21806;SDS011;11065;50.786;7.840;2023-04-23T12:59:58;2.53;;;1.30;;
21806;SDS011;11065;50.786;7.840;2023-04-23T13:02:27;1.77;;;1.38;;
21806;SDS011;11065;50.786;7.840;2023-04-23T13:04:56;2.55;;;1.27;;
21806;SDS011;11065;50.786;7.840;2023-04-23T13:07:26;2.78;;;2.00;;
21806;SDS011;11065;50.786;7.840;2023-04-23T13:09:55;4.38;;;1.92;;
21806;SDS011;11065;50.786;7.840;2023-04-23T13:12:24;3.58;;;1.30;;
21806;SDS011;11065;50.786;7.840;2023-04-23T13:14:52;2.05;;;1.27;;
21806;SDS011;11065;50.786;7.840;2023-04-23T13:17:20;3.05;;;1.60;;
21806;SDS011;11065;50.786;7.840;2023-04-23T13:19:52;3.50;;;1.50;;
21806;SDS011;11065;50.786;7.840;2023-04-23T13:22:21;3.05;;;1.40;;
21806;SDS011;11065;50.786;7.840;2023-04-23T13:24:54;2.53;;;1.58;;
21806;SDS011;11065;50.786;7.840;2023-04-23T13:27:23;3.28;;;1.75;;
21806;SDS011;11065;50.786;7.840;2023-04-23T13:29:51;2.13;;;1.40;;
21806;SDS011;11065;50.786;7.840;2023-04-23T13:32:19;3.03;;;1.40;;
21806;SDS011;11065;50.786;7.840;2023-04-23T13:34:48;2.20;;;1.60;;
21806;SDS011;11065;50.786;7.840;2023-04-23T13:37:18;1.95;;;1.42;;
21806;SDS011;11065;50.786;7.840;2023-04-23T13:39:47;3.47;;;1.67;;
21806;SDS011;11065;50.786;7.840;2023-04-23T13:42:15;1.60;;;1.20;;
21806;SDS011;11065;50.786;7.840;2023-04-23T13:44:43;2.40;;;1.52;;
21806;SDS011;11065;50.786;7.840;2023-04-23T13:47:11;1.98;;;1.42;;
21806;SDS011;11065;50.786;7.840;2023-04-23T13:49:39;2.20;;;1.45;;
21806;SDS011;11065;50.786;7.840;2023-04-23T13:52:07;3.22;;;1.45;;
21806;SDS011;11065;50.786;7.840;2023-04-23T13:54:36;2.30;;;1.40;;
21806;SDS011;11065;50.786;7.840;2023-04-23T13:57:05;2.00;;;1.13;;
21806;SDS011;11065;50.786;7.840;2023-04-23T13:59:34;1.63;;;1.20;;
21806;SDS011;11065;50.786;7.840;2023-04-23T14:02:02;2.25;;;1.48;;
21806;SDS011;11065;50.786;7.840;2023-04-23T14:04:30;3.20;;;1.23;;
21806;SDS011;11065;50.786;7.840;2023-04-23T14:06:58;2.33;;;1.37;;
21806;SDS011;11065;50.786;7.840;2023-04-23T14:09:26;2.07;;;1.07;;
21806;SDS011;11065;50.786;7.840;2023-04-23T14:11:56;2.70;;;1.20;;
21806;SDS011;11065;50.786;7.840;2023-04-23T14:14:24;1.93;;;1.13;;
21806;SDS011;11065;50.786;7.840;2023-04-23T14:16:52;3.57;;;1.60;;
21806;SDS011;11065;50.786;7.840;2023-04-23T14:19:20;2.43;;;1.00;;
21806;SDS011;11065;50.786;7.840;2023-04-23T14:21:51;3.13;;;1.13;;
21806;SDS011;11065;50.786;7.840;2023-04-23T14:24:21;1.10;;;0.70;;
21806;SDS011;11065;50.786;7.840;2023-04-23T14:26:50;1.30;;;0.90;;
21806;SDS011;11065;50.786;7.840;2023-04-23T14:29:22;1.70;;;0.90;;
21806;SDS011;11065;50.786;7.840;2023-04-23T14:31:57;1.20;;;0.60;;
21806;SDS011;11065;50.786;7.840;2023-04-23T14:34:25;1.57;;;0.60;;
21806;SDS011;11065;50.786;7.840;2023-04-23T14:36:53;1.37;;;0.80;;
21806;SDS011;11065;50.786;7.840;2023-04-23T14:39:21;1.70;;;0.70;;
21806;SDS011;11065;50.786;7.840;2023-04-23T14:41:51;2.20;;;0.83;;
21806;SDS011;11065;50.786;7.840;2023-04-23T14:44:20;1.47;;;1.00;;
21806;SDS011;11065;50.786;7.840;2023-04-23T14:46:51;1.40;;;0.70;;
21806;SDS011;11065;50.786;7.840;2023-04-23T14:49:19;1.23;;;0.80;;
21806;SDS011;11065;50.786;7.840;2023-04-23T14:51:48;1.87;;;0.80;;